Time;durP1;ratioP1;P1;durP2;ratioP2;P2;SDS_P1;SDS_P2;PMS_P1;PMS_P2;Temp;Humidity;BMP_temperature;BMP_pressure;BME280_temperature;BME280_humidity;BME280_pressure;Samples;Min_cycle;Max_cycle;Signal;HPM_P1;HPM_P2
2024/01/06 00:02:32;;;;;;;12.87;7.17;;;;;;;6.83;100.00;100391.34;31495703;28;20131;-81
2024/01/06 00:17:34;;;;;;;15.93;8.57;;;;;;;6.72;100.00;100401.34;31496502;28;20052;-83
2024/01/06 00:32:36;;;;;;;16.33;9.60;;;;;;;6.78;100.00;100394.44;31486682;28;20052;-81
2024/01/06 00:47:39;;;;;;;16.77;8.83;;;;;;;6.57;100.00;100399.03;31501691;28;20135;-81
2024/01/06 01:02:41;;;;;;;18.63;8.67;;;;;;;6.36;100.00;100427.50;31504683;28;20052;-82
2024/01/06 01:17:43;;;;;;;20.70;9.47;;;;;;;4.88;100.00;100438.19;31498609;28;20045;-81
2024/01/06 01:32:45;;;;;;;17.57;9.23;;;;;;;4.86;100.00;100432.38;31504355;28;20459;-81
2024/01/06 01:47:48;;;;;;;17.90;8.40;;;;;;;4.91;100.00;100432.84;31492933;28;20105;-81
2024/01/06 02:02:50;;;;;;;17.23;8.73;;;;;;;5.01;100.00;100458.25;31504281;28;20052;-82
2024/01/06 02:17:52;;;;;;;17.47;8.43;;;;;;;5.01;100.00;100469.81;31496972;28;20053;-82
2024/01/06 02:32:54;;;;;;;12.50;7.27;;;;;;;5.00;100.00;100473.63;31492058;28;20041;-81
2024/01/06 02:47:56;;;;;;;14.57;8.00;;;;;;;5.05;100.00;100500.22;31481497;28;20128;-81
2024/01/06 03:02:58;;;;;;;15.00;8.40;;;;;;;4.87;100.00;100488.50;31489873;28;20044;-80
2024/01/06 03:18:01;;;;;;;16.57;8.43;;;;;;;4.89;100.00;100510.44;31497021;28;20044;-83
2024/01/06 03:33:03;;;;;;;14.70;6.87;;;;;;;5.04;100.00;100522.88;31480618;28;20076;-82
2024/01/06 03:48:07;;;;;;;23.17;9.77;;;;;;;5.05;100.00;100545.19;31514784;28;20427;-83
2024/01/06 04:03:09;;;;;;;22.40;10.00;;;;;;;4.79;100.00;100575.66;31508723;28;20075;-82
2024/01/06 04:18:12;;;;;;;22.70;10.07;;;;;;;4.65;100.00;100588.94;31497207;28;20294;-81
2024/01/06 04:33:14;;;;;;;17.63;9.47;;;;;;;4.59;100.00;100610.00;31495465;28;20056;-80
2024/01/06 04:48:16;;;;;;;13.30;8.43;;;;;;;4.38;100.00;100597.06;31514967;28;20068;-80
2024/01/06 05:03:19;;;;;;;15.77;8.27;;;;;;;4.36;100.00;100615.47;31504217;28;20136;-80
2024/01/06 05:18:21;;;;;;;17.90;7.70;;;;;;;4.45;100.00;100607.91;31500737;28;20052;-79
2024/01/06 05:33:23;;;;;;;14.23;7.50;;;;;;;4.29;100.00;100615.34;31498586;28;20053;-80
2024/01/06 05:48:25;;;;;;;16.00;8.10;;;;;;;5.53;100.00;100628.69;31542635;28;20085;-77
2024/01/06 06:03:28;;;;;;;14.60;7.97;;;;;;;5.58;100.00;100639.91;31503650;28;20108;-83
2024/01/06 06:18:30;;;;;;;17.93;8.10;;;;;;;6.31;100.00;100646.28;31487723;28;20049;-80
2024/01/06 06:33:33;;;;;;;10.47;6.67;;;;;;;8.74;100.00;100642.78;31557455;28;20056;-82
2024/01/06 06:48:36;;;;;;;12.47;6.37;;;;;;;8.76;100.00;100657.47;31535623;28;20052;-81
2024/01/06 07:03:38;;;;;;;19.23;8.40;;;;;;;7.49;100.00;100663.72;31561785;28;20059;-81
2024/01/06 07:18:40;;;;;;;13.37;6.90;;;;;;;6.37;100.00;100682.53;31506687;28;20464;-82
2024/01/06 07:33:43;;;;;;;15.03;7.30;;;;;;;6.10;100.00;100660.41;31524961;28;20056;-82
2024/01/06 07:48:45;;;;;;;16.73;9.53;;;;;;;5.76;100.00;100658.91;31524787;28;20387;-81
2024/01/06 08:03:47;;;;;;;23.80;10.43;;;;;;;5.87;100.00;100692.13;31556139;28;20078;-80
2024/01/06 08:18:49;;;;;;;16.60;9.20;;;;;;;7.04;100.00;100655.13;31527688;28;20051;-83
2024/01/06 08:33:52;;;;;;;12.00;6.80;;;;;;;7.16;100.00;100635.88;31533290;28;20057;-80
2024/01/06 08:48:54;;;;;;;13.17;8.07;;;;;;;7.64;100.00;100659.88;31485963;28;20052;-83
2024/01/06 09:03:56;;;;;;;16.97;8.17;;;;;;;9.54;100.00;100624.53;31558288;28;20048;-84
2024/01/06 09:18:59;;;;;;;12.93;6.73;;;;;;;9.67;100.00;100627.56;31502712;28;20071;-80
2024/01/06 09:34:06;;;;;;;12.23;6.40;;;;;;;8.61;100.00;100617.31;31533657;28;20404;-79
2024/01/06 09:49:09;;;;;;;14.70;7.40;;;;;;;8.11;100.00;100582.25;31577151;28;20082;-78
2024/01/06 10:04:11;;;;;;;11.63;6.50;;;;;;;8.01;100.00;100574.94;31552401;28;20053;-80
2024/01/06 10:19:19;;;;;;;12.37;6.80;;;;;;;7.04;100.00;100522.84;31461305;28;20451;-82
2024/01/06 10:34:24;;;;;;;16.10;7.77;;;;;;;6.97;100.00;100514.72;31488363;28;20060;-78
2024/01/06 10:49:29;;;;;;;13.87;5.93;;;;;;;7.09;100.00;100489.28;31480300;28;20496;-78
2024/01/06 11:04:32;;;;;;;16.63;6.97;;;;;;;6.66;100.00;100461.47;31500554;28;20051;-79
2024/01/06 11:19:34;;;;;;;16.90;6.70;;;;;;;6.74;100.00;100452.25;31512710;28;20048;-81
2024/01/06 11:34:38;;;;;;;15.20;6.70;;;;;;;6.71;100.00;100440.28;31494376;28;20052;-82
2024/01/06 11:49:44;;;;;;;11.07;5.50;;;;;;;6.73;100.00;100413.69;31491592;28;20052;-82
2024/01/06 12:04:51;;;;;;;12.70;6.00;;;;;;;6.77;100.00;100411.00;31477504;28;20043;-78
2024/01/06 12:19:53;;;;;;;11.33;5.70;;;;;;;6.77;100.00;100386.72;31550703;28;20517;-78
2024/01/06 12:34:56;;;;;;;13.53;6.40;;;;;;;6.79;100.00;100363.59;31518005;28;20518;-83
2024/01/06 12:49:58;;;;;;;12.83;5.80;;;;;;;6.93;100.00;100341.22;31512499;28;20061;-84
2024/01/06 13:05:00;;;;;;;9.27;5.23;;;;;;;6.91;100.00;100332.72;31498275;28;20048;-83
2024/01/06 13:20:03;;;;;;;10.80;6.30;;;;;;;6.89;100.00;100302.66;31524411;28;20053;-82
2024/01/06 13:35:06;;;;;;;10.53;6.10;;;;;;;7.06;100.00;100291.09;31514515;28;20420;-81
2024/01/06 13:50:10;;;;;;;10.87;5.70;;;;;;;7.09;100.00;100282.19;31512918;28;20454;-80
2024/01/06 14:05:13;;;;;;;10.47;4.67;;;;;;;6.99;100.00;100258.69;31506415;28;20063;-81
2024/01/06 14:20:19;;;;;;;8.97;5.07;;;;;;;7.09;100.00;100252.47;31504509;28;20511;-81
2024/01/06 14:35:22;;;;;;;8.03;4.50;;;;;;;7.22;100.00;100233.16;31511448;28;20053;-89
2024/01/06 14:50:24;;;;;;;11.00;4.93;;;;;;;7.32;100.00;100221.56;31513547;28;20048;-82
2024/01/06 15:05:29;;;;;;;9.23;4.33;;;;;;;7.44;100.00;100186.78;31482658;28;20060;-84
2024/01/06 15:20:34;;;;;;;6.43;3.67;;;;;;;7.57;100.00;100183.59;31495336;28;20266;-82
2024/01/06 15:35:36;;;;;;;6.07;3.77;;;;;;;7.63;100.00;100144.97;31508036;28;20447;-86
2024/01/06 15:50:38;;;;;;;8.60;3.93;;;;;;;7.76;100.00;100148.75;31537122;28;20056;-82
2024/01/06 16:05:42;;;;;;;7.13;4.07;;;;;;;7.57;100.00;100118.75;31461347;28;20048;-83
2024/01/06 16:20:46;;;;;;;11.23;4.67;;;;;;;7.29;100.00;100109.72;31518271;28;20091;-85
2024/01/06 16:35:48;;;;;;;6.73;3.87;;;;;;;7.18;100.00;100098.97;31509739;28;20059;-83
2024/01/06 16:50:50;;;;;;;11.40;6.13;;;;;;;7.21;100.00;100081.19;31524576;28;20045;-81
2024/01/06 17:05:52;;;;;;;8.07;5.30;;;;;;;7.14;100.00;100057.72;31523743;28;20056;-82
2024/01/06 17:20:55;;;;;;;7.17;4.17;;;;;;;7.08;100.00;100045.81;31523022;28;20112;-83
2024/01/06 17:35:57;;;;;;;28.83;5.23;;;;;;;7.15;100.00;100034.94;31491734;28;20045;-81
2024/01/06 17:50:59;;;;;;;12.30;5.37;;;;;;;7.08;100.00;100020.75;31490671;28;20041;-84
2024/01/06 18:06:01;;;;;;;14.83;6.20;;;;;;;7.79;100.00;100020.94;31527714;28;20070;-88
2024/01/06 18:21:04;;;;;;;11.43;5.53;;;;;;;7.48;100.00;99998.44;31537168;28;20044;-89
2024/01/06 18:36:07;;;;;;;10.40;5.67;;;;;;;7.63;100.00;99988.28;31507432;28;20051;-89
2024/01/06 18:51:09;;;;;;;8.53;6.10;;;;;;;9.10;100.00;99994.19;31432479;28;20056;-84
2024/01/06 19:06:12;;;;;;;14.60;5.70;;;;;;;7.93;100.00;99967.91;31484716;28;20131;-86
2024/01/06 19:21:14;;;;;;;10.03;5.43;;;;;;;7.83;100.00;99948.69;31451982;28;20098;-84
2024/01/06 19:36:16;;;;;;;15.57;5.53;;;;;;;8.03;100.00;99907.56;31490662;28;20053;-81
2024/01/06 19:51:19;;;;;;;15.43;5.57;;;;;;;8.29;100.00;99904.09;31502855;28;20056;-83
2024/01/06 20:06:21;;;;;;;17.00;5.53;;;;;;;8.17;100.00;99880.31;31454339;28;20052;-82
2024/01/06 20:21:24;;;;;;;12.67;5.27;;;;;;;8.45;100.00;99855.59;31453450;28;20048;-85
2024/01/06 20:36:27;;;;;;;14.47;4.73;;;;;;;8.94;100.00;99866.81;31519809;28;20048;-84
2024/01/06 20:51:29;;;;;;;10.83;4.87;;;;;;;8.49;100.00;99815.75;31512398;28;20076;-83
2024/01/06 21:06:35;;;;;;;11.87;4.83;;;;;;;8.34;100.00;99798.19;31509416;28;20057;-83
2024/01/06 21:21:38;;;;;;;10.07;4.73;;;;;;;8.25;100.00;99762.78;31509724;28;20122;-85
2024/01/06 21:36:40;;;;;;;10.07;4.40;;;;;;;8.36;100.00;99757.97;31502702;28;20451;-87
2024/01/06 21:51:47;;;;;;;11.03;3.73;;;;;;;9.24;100.00;99727.75;31509604;28;20055;-86
2024/01/06 22:06:49;;;;;;;7.20;3.63;;;;;;;9.77;100.00;99759.16;31476447;28;20056;-86
2024/01/06 22:21:53;;;;;;;10.63;3.97;;;;;;;8.50;100.00;99725.28;31528804;28;20050;-85
2024/01/06 22:36:57;;;;;;;12.60;4.17;;;;;;;8.69;100.00;99714.91;31498664;28;20139;-85
2024/01/06 22:51:59;;;;;;;6.57;3.00;;;;;;;8.80;100.00;99715.47;31512892;28;20543;-85
2024/01/06 23:07:03;;;;;;;12.27;3.70;;;;;;;8.91;100.00;99701.75;31521210;28;20401;-86
2024/01/06 23:22:06;;;;;;;5.13;3.20;;;;;;;8.94;100.00;99693.56;31521499;28;20443;-86
2024/01/06 23:37:09;;;;;;;8.40;3.40;;;;;;;10.30;100.00;99730.09;31509058;28;20056;-86
2024/01/06 23:52:11;;;;;;;6.20;2.53;;;;;;;10.39;100.00;99735.69;31527088;28;20060;-84
